Terminal Aerodrome Forecast
Issued by NWS Cleveland, OH

Home | Current Version | Previous Version | Graphics & Text | Print | Product List | Glossary On
Versions: 1 2 3 4 5 6 7 8 9 10 11 12 13 14
000
FTUS41 KCLE 270527
TAFERI
TAF
KERI 270527Z 2706/2806 34007KT P6SM BKN020 OVC045
      TEMPO 2706/2710 SCT020 OVC045
     FM271000 32007KT P6SM SCT020 OVC040
     FM272300 27005KT P6SM SCT250=

USA.gov is the U.S. government's official web portal to all federal, state and local government web resources and services.